Time;durP1;ratioP1;P1;durP2;ratioP2;P2;SDS_P1;SDS_P2;PMS_P1;PMS_P2;Temp;Humidity;BMP_temperature;BMP_pressure;BME280_temperature;BME280_humidity;BME280_pressure;Samples;Min_cycle;Max_cycle;Signal;HPM_P1;HPM_P2
2021/05/17 00:04:53;;;;;;;10.17;4.57;;;;;;;12.05;73.65;99412.00;5154296;56;1136521;-74
2021/05/17 00:10:00;;;;;;;6.27;3.50;;;;;;;12.00;73.82;99409.81;5154039;56;1138409;-74
2021/05/17 00:15:10;;;;;;;5.53;2.75;;;;;;;12.01;73.86;99411.97;5153787;56;1136432;-76
2021/05/17 00:20:18;;;;;;;6.22;3.47;;;;;;;12.04;73.85;99411.66;5153916;56;1136678;-75
2021/05/17 00:25:26;;;;;;;5.60;3.80;;;;;;;12.08;74.27;99416.48;5154010;56;1136347;-73
2021/05/17 00:30:34;;;;;;;6.33;3.23;;;;;;;12.12;74.48;99411.21;5153927;56;1136228;-73
2021/05/17 00:35:41;;;;;;;3.97;2.80;;;;;;;12.12;74.43;99405.08;5153943;56;1136503;-75
2021/05/17 00:40:48;;;;;;;3.17;2.33;;;;;;;12.11;74.33;99408.22;5154045;56;1136314;-76
2021/05/17 00:45:55;;;;;;;2.63;2.37;;;;;;;12.18;74.67;99406.63;5153942;56;1136358;-78
2021/05/17 00:51:04;;;;;;;3.23;2.50;;;;;;;12.22;74.58;99403.17;5154066;56;1136348;-75
2021/05/17 00:56:12;;;;;;;4.40;2.80;;;;;;;12.19;74.39;99404.80;5153924;56;1136366;-75
2021/05/17 01:01:20;;;;;;;2.77;2.30;;;;;;;12.06;74.51;99410.53;5153786;56;1136807;-75
2021/05/17 01:06:29;;;;;;;8.10;3.23;;;;;;;12.10;74.93;99415.00;5153767;56;1136344;-72
2021/05/17 01:11:36;;;;;;;5.00;3.60;;;;;;;12.13;74.82;99412.05;5153776;55;1136372;-74
2021/05/17 01:16:42;;;;;;;7.07;3.87;;;;;;;12.14;74.78;99406.59;5153858;56;1136244;-73
2021/05/17 01:21:57;;;;;;;8.87;4.10;;;;;;;12.10;74.89;99395.12;5153482;56;1136415;-73
2021/05/17 01:27:05;;;;;;;7.50;3.77;;;;;;;12.01;74.78;99394.74;5160979;56;1136482;-77
2021/05/17 01:32:12;;;;;;;10.37;5.03;;;;;;;11.97;74.71;99399.52;5153866;55;1136344;-75
2021/05/17 01:37:24;;;;;;;7.87;4.20;;;;;;;11.97;75.04;99396.38;5153791;56;1138457;-76
2021/05/17 01:42:30;;;;;;;6.30;4.30;;;;;;;12.02;75.23;99393.76;5153575;56;1136380;-75
2021/05/17 01:47:43;;;;;;;6.27;3.70;;;;;;;11.93;75.07;99385.73;5153611;56;1136369;-73
2021/05/17 01:52:51;;;;;;;3.90;3.50;;;;;;;11.80;74.96;99380.51;5153940;56;1136683;-74
2021/05/17 01:58:13;;;;;;;12.93;7.30;;;;;;;11.71;74.92;99381.42;5153707;56;1136472;-73
2021/05/17 02:03:20;;;;;;;9.13;4.08;;;;;;;11.69;75.17;99376.27;5153490;56;1138807;-76
2021/05/17 02:08:27;;;;;;;9.30;3.90;;;;;;;11.65;75.24;99373.58;5153664;56;1136743;-77
2021/05/17 02:13:37;;;;;;;6.63;5.03;;;;;;;11.59;75.37;99372.89;5153518;56;1136659;-76
2021/05/17 02:18:46;;;;;;;8.20;6.00;;;;;;;11.58;75.46;99372.55;5153710;56;1137057;-76
2021/05/17 02:23:52;;;;;;;7.90;5.20;;;;;;;11.58;75.33;99373.88;5153487;56;1136667;-73
2021/05/17 02:28:59;;;;;;;7.00;5.03;;;;;;;11.55;75.40;99375.50;5153518;56;1136843;-74
2021/05/17 02:34:07;;;;;;;7.37;4.03;;;;;;;11.49;75.35;99374.77;5154050;56;1136935;-74
2021/05/17 02:39:16;;;;;;;9.65;3.90;;;;;;;11.42;75.26;99383.83;5153716;56;1136943;-77
2021/05/17 02:44:23;;;;;;;6.80;4.55;;;;;;;11.40;75.28;99383.15;5153922;56;1136714;-74
2021/05/17 02:49:33;;;;;;;13.63;6.00;;;;;;;11.38;75.45;99385.11;5153550;56;1136715;-75
2021/05/17 02:54:43;;;;;;;10.43;5.37;;;;;;;11.36;75.61;99388.89;5153392;56;1138771;-74
2021/05/17 03:00:15;;;;;;;8.20;5.77;;;;;;;11.35;75.56;99390.70;5153442;56;1138740;-73
2021/05/17 03:05:19;;;;;;;7.42;5.67;;;;;;;11.30;75.41;99398.28;5148221;56;1136364;-72
2021/05/17 03:10:29;;;;;;;9.50;6.53;;;;;;;11.21;75.83;99399.17;5153700;56;1136278;-75
2021/05/17 03:15:40;;;;;;;9.80;6.20;;;;;;;11.12;76.30;99394.79;5153388;56;1136377;-73
2021/05/17 03:20:46;;;;;;;9.90;6.10;;;;;;;11.10;76.28;99394.11;5153578;56;1136545;-75
2021/05/17 03:25:53;;;;;;;11.93;6.70;;;;;;;11.15;76.32;99398.47;5153538;56;1136364;-73
2021/05/17 03:30:59;;;;;;;10.50;6.30;;;;;;;11.21;76.50;99400.49;5153183;56;1138476;-74
2021/05/17 03:36:05;;;;;;;10.27;6.30;;;;;;;11.23;76.61;99403.83;5153303;56;1138450;-75
2021/05/17 03:41:10;;;;;;;7.58;5.45;;;;;;;11.26;76.73;99417.59;5153565;56;1138848;-73
2021/05/17 03:46:16;;;;;;;9.83;6.40;;;;;;;11.31;76.88;99425.06;5154198;56;1136363;-76
2021/05/17 03:51:22;;;;;;;9.65;5.33;;;;;;;11.36;76.88;99425.95;5154131;56;1136430;-73
2021/05/17 03:56:28;;;;;;;15.87;5.97;;;;;;;11.33;76.71;99411.20;5154004;56;1136383;-76
2021/05/17 04:01:34;;;;;;;7.23;5.40;;;;;;;11.41;77.15;99400.70;5154883;56;1138549;-75
2021/05/17 04:06:56;;;;;;;12.00;6.40;;;;;;;11.48;77.34;99393.80;5155237;56;1136249;-72
2021/05/17 04:17:20;;;;;;;9.70;6.17;;;;;;;11.58;77.42;99408.30;5155202;56;1136185;-73
2021/05/17 04:22:26;;;;;;;9.80;5.27;;;;;;;11.60;77.28;99436.30;5155050;56;1136251;-76
2021/05/17 04:27:32;;;;;;;6.20;5.23;;;;;;;11.61;77.18;99440.58;5155087;56;1136301;-71
2021/05/17 04:32:38;;;;;;;7.63;4.97;;;;;;;11.64;77.22;99444.75;5154937;56;1136242;-72
2021/05/17 04:37:44;;;;;;;10.40;5.37;;;;;;;11.66;77.23;99451.22;5155086;56;1136282;-74
2021/05/17 04:42:49;;;;;;;9.57;5.27;;;;;;;11.65;77.13;99455.69;5154921;56;1138377;-75
2021/05/17 04:47:56;;;;;;;31.13;16.77;;;;;;;11.66;77.15;99445.92;5155087;56;1136227;-71
2021/05/17 04:53:03;;;;;;;9.77;5.73;;;;;;;11.77;77.40;99447.03;5154596;56;1140418;-73
2021/05/17 04:58:09;;;;;;;9.57;5.40;;;;;;;11.86;77.45;99450.95;5155047;55;1136373;-72
2021/05/17 05:03:15;;;;;;;7.78;4.70;;;;;;;11.88;77.37;99450.80;5155075;56;1136356;-74
2021/05/17 05:08:21;;;;;;;13.10;4.92;;;;;;;11.93;77.27;99451.98;5155173;56;1136895;-73
2021/05/17 05:13:27;;;;;;;8.53;3.83;;;;;;;12.04;77.49;99458.88;5154887;56;1138415;-73
2021/05/17 05:18:33;;;;;;;12.43;5.23;;;;;;;12.11;77.41;99461.23;5144196;56;1136501;-74
2021/05/17 05:23:39;;;;;;;5.03;4.53;;;;;;;12.25;78.18;99454.03;5103781;56;1138602;-73
2021/05/17 05:33:50;;;;;;;7.30;2.90;;;;;;;12.75;77.27;99460.46;5084952;56;1136500;-71
2021/05/17 05:38:56;;;;;;;10.87;3.57;;;;;;;12.97;77.07;99462.56;5064137;56;1136542;-73
2021/05/17 05:44:02;;;;;;;4.53;3.13;;;;;;;13.11;76.05;99473.89;5064206;57;1138862;-72
2021/05/17 05:49:10;;;;;;;4.47;3.50;;;;;;;13.38;76.05;99471.51;5069416;57;1136694;-73
2021/05/17 05:54:16;;;;;;;8.93;2.98;;;;;;;13.64;76.73;99469.55;5049426;57;1136743;-73
2021/05/17 05:59:22;;;;;;;6.28;3.10;;;;;;;13.91;74.82;99452.95;5064850;57;1136743;-72
2021/05/17 06:04:29;;;;;;;2.43;2.10;;;;;;;14.04;74.28;99438.69;5064048;57;1136474;-73
2021/05/17 06:09:35;;;;;;;3.47;2.00;;;;;;;14.17;74.04;99433.69;5067378;56;1136534;-75
2021/05/17 06:14:41;;;;;;;3.37;2.47;;;;;;;14.44;74.15;99432.49;5090901;56;1136502;-74
2021/05/17 06:19:46;;;;;;;8.47;4.47;;;;;;;14.72;73.25;99425.75;5091190;56;1136912;-73
2021/05/17 06:24:53;;;;;;;6.47;2.10;;;;;;;14.97;73.15;99429.13;5090911;56;1136301;-74
2021/05/17 06:29:59;;;;;;;4.27;1.90;;;;;;;15.15;72.40;99434.20;5095039;56;1136151;-74
2021/05/17 06:35:09;;;;;;;11.73;2.13;;;;;;;15.32;71.62;99433.11;5147917;56;1136303;-74
2021/05/17 06:40:16;;;;;;;4.67;1.40;;;;;;;15.47;71.99;99426.02;5152727;56;1138578;-73
2021/05/17 06:45:22;;;;;;;5.05;1.25;;;;;;;15.75;71.39;99425.00;5151423;56;1136586;-71
2021/05/17 06:50:30;;;;;;;3.07;1.20;;;;;;;15.75;69.72;99426.34;5078838;56;1136695;-74
2021/05/17 06:55:44;;;;;;;2.30;1.33;;;;;;;15.95;69.87;99420.02;5014179;57;1136643;-75
2021/05/17 07:00:47;;;;;;;3.30;1.50;;;;;;;16.22;70.34;99421.25;5015133;56;1136488;-74
2021/05/17 07:05:58;;;;;;;4.47;0.97;;;;;;;16.44;69.71;99412.36;5063587;56;1136796;-74
2021/05/17 07:16:27;;;;;;;;;;;;;;;16.93;67.54;99419.83;5072743;57;1136786;-73
2021/05/17 07:26:55;;;;;;;;;;;;;;;17.09;64.68;99422.30;5117230;56;1134289;-72
2021/05/17 07:32:01;;;;;;;2.60;1.37;;;;;;;17.23;63.80;99409.91;5167912;56;973799;-73
2021/05/17 07:37:09;;;;;;;3.83;1.20;;;;;;;17.36;64.79;99394.52;5153807;56;1134694;-73
2021/05/17 07:42:16;;;;;;;2.74;1.34;;;;;;;17.32;62.84;99396.73;5154550;56;1136470;-72
2021/05/17 07:47:22;;;;;;;1.32;0.90;;;;;;;17.33;64.17;99402.91;5154505;56;1136779;-72
2021/05/17 07:52:28;;;;;;;5.78;1.35;;;;;;;17.50;62.08;99409.16;5156789;56;1136691;-72
2021/05/17 07:57:34;;;;;;;16.53;2.23;;;;;;;17.55;60.95;99409.43;5156199;56;1136214;-73
2021/05/17 08:02:40;;;;;;;3.27;1.30;;;;;;;17.81;62.87;99409.38;5130726;56;1138369;-71
2021/05/17 08:07:46;;;;;;;2.30;1.20;;;;;;;18.08;61.36;99399.20;5121414;56;1136500;-72
2021/05/17 08:12:52;;;;;;;1.57;1.10;;;;;;;18.20;61.20;99404.84;5148951;56;1136256;-73
2021/05/17 08:18:03;;;;;;;0.93;0.83;;;;;;;18.24;60.34;99404.77;5098318;56;1136557;-71
2021/05/17 08:23:06;;;;;;;1.97;1.20;;;;;;;18.06;58.37;99403.92;5100538;56;1136231;-73
2021/05/17 08:28:14;;;;;;;3.77;1.30;;;;;;;17.81;59.76;99412.88;5140635;56;1136500;-72
2021/05/17 08:33:19;;;;;;;2.65;1.57;;;;;;;17.56;59.05;99412.42;5152807;56;1136494;-72
2021/05/17 08:38:26;;;;;;;11.22;2.47;;;;;;;17.41;59.28;99413.50;5152731;56;1136728;-71
2021/05/17 08:43:32;;;;;;;3.30;1.70;;;;;;;17.35;60.07;99412.40;5152414;56;1138598;-73
2021/05/17 08:48:47;;;;;;;3.13;1.70;;;;;;;17.27;59.81;99418.34;5152803;56;1136415;-73
2021/05/17 08:53:58;;;;;;;3.93;1.23;;;;;;;17.23;60.52;99429.44;5152559;56;1136338;-71
2021/05/17 08:59:05;;;;;;;2.87;1.80;;;;;;;17.10;60.37;99430.63;5152624;56;1136474;-73
2021/05/17 09:04:15;;;;;;;2.93;1.63;;;;;;;17.01;61.17;99429.06;5172905;56;1136360;-72
2021/05/17 09:09:35;;;;;;;2.40;1.37;;;;;;;16.92;60.73;99430.19;5154533;55;1136628;-78
2021/05/17 09:14:42;;;;;;;4.23;1.20;;;;;;;16.91;61.15;99423.19;5154649;56;1136546;-75
2021/05/17 09:19:47;;;;;;;8.53;1.03;;;;;;;16.87;60.73;99418.72;5148106;56;1136426;-73
2021/05/17 09:24:57;;;;;;;5.03;1.60;;;;;;;16.88;60.83;99418.22;5129845;56;1136749;-79
2021/05/17 09:30:06;;;;;;;5.90;2.10;;;;;;;17.23;60.48;99421.94;5131350;56;1136216;-69
2021/05/17 09:35:20;;;;;;;3.38;1.30;;;;;;;17.51;58.94;99422.02;5159757;56;1145879;-75
2021/05/17 09:40:31;;;;;;;3.15;1.20;;;;;;;17.37;58.84;99423.73;5141049;56;1136390;-76
2021/05/17 09:45:43;;;;;;;5.93;1.77;;;;;;;17.19;59.02;99420.64;5154610;55;1136342;-73
2021/05/17 09:51:12;;;;;;;2.17;1.70;;;;;;;17.21;59.24;99415.44;5145079;56;1136273;-79
2021/05/17 09:56:27;;;;;;;9.77;3.43;;;;;;;17.25;59.10;99427.09;5090605;56;1136432;-79
2021/05/17 10:01:30;;;;;;;3.15;1.72;;;;;;;17.28;57.68;99418.67;5091298;56;1136434;-76
2021/05/17 10:06:36;;;;;;;3.23;1.50;;;;;;;17.44;59.02;99417.10;5091785;56;1136271;-78
2021/05/17 10:11:42;;;;;;;30.07;2.40;;;;;;;17.69;58.07;99425.62;5091593;56;1136437;-79
2021/05/17 10:16:50;;;;;;;15.30;3.57;;;;;;;17.91;57.29;99415.22;5091429;56;1138275;-80
2021/05/17 10:21:55;;;;;;;2.40;1.40;;;;;;;18.17;55.67;99421.31;5091453;56;1138885;-76
2021/05/17 10:27:04;;;;;;;4.77;1.30;;;;;;;18.17;55.09;99423.48;5079797;56;1136751;-72
2021/05/17 10:32:10;;;;;;;2.07;1.13;;;;;;;18.18;52.74;99426.98;5069008;57;1136758;-78
2021/05/17 10:37:21;;;;;;;8.03;2.77;;;;;;;18.20;51.07;99435.11;5069236;57;1136732;-73
2021/05/17 10:42:41;;;;;;;2.80;1.12;;;;;;;18.37;52.01;99434.81;5069123;57;1136659;-73
2021/05/17 10:47:39;;;;;;;4.10;1.82;;;;;;;18.64;51.00;99425.16;5066128;57;1136739;-73
2021/05/17 10:52:45;;;;;;;3.37;1.53;;;;;;;18.71;51.17;99420.13;5068937;57;1136989;-74
2021/05/17 11:03:25;;;;;;;7.93;1.37;;;;;;;18.47;51.34;99427.28;5068180;57;1136379;-75
2021/05/17 11:08:26;;;;;;;3.30;1.20;;;;;;;18.53;51.28;99420.61;5076413;56;1136716;-75
2021/05/17 11:13:32;;;;;;;3.50;0.98;;;;;;;18.59;50.44;99426.56;5152769;56;1136737;-73
2021/05/17 11:18:45;;;;;;;2.37;1.33;;;;;;;18.56;50.42;99426.09;5152924;56;1136351;-74
2021/05/17 11:23:56;;;;;;;14.75;1.50;;;;;;;18.54;50.23;99424.95;5152681;55;1136417;-74
2021/05/17 11:29:05;;;;;;;17.90;10.27;;;;;;;18.64;51.86;99429.17;5102918;56;1138305;-73
2021/05/17 11:34:18;;;;;;;3.12;2.08;;;;;;;18.70;50.06;99433.72;5099894;56;1140394;-75
2021/05/17 11:39:25;;;;;;;;;;;;;;;18.70;49.78;99435.88;5104041;56;1136482;-72
2021/05/17 11:44:39;;;;;;;12.28;2.95;;;;;;;18.72;48.43;99435.69;5113736;56;973707;-75
2021/05/17 11:49:46;;;;;;;2.43;0.93;;;;;;;18.66;50.03;99435.13;5098132;56;1136579;-76
2021/05/17 11:54:55;;;;;;;7.93;0.90;;;;;;;18.63;50.75;99441.73;5100424;56;1136668;-73
2021/05/17 12:00:11;;;;;;;1.30;1.20;;;;;;;18.59;51.68;99445.82;5101499;56;1136424;-76
2021/05/17 12:05:24;;;;;;;4.00;1.45;;;;;;;18.64;51.43;99443.90;5100201;56;1136713;-72
2021/05/17 12:10:38;;;;;;;3.83;0.85;;;;;;;18.61;50.84;99459.84;5099358;56;1136761;-73
2021/05/17 12:15:44;;;;;;;2.53;1.30;;;;;;;18.61;50.88;99463.86;5091914;56;1136695;-74
2021/05/17 12:20:50;;;;;;;2.33;1.12;;;;;;;18.59;51.84;99469.92;5092040;56;1136688;-73
2021/05/17 12:25:58;;;;;;;6.80;1.65;;;;;;;18.64;52.17;99463.98;5145054;56;1136675;-73
2021/05/17 12:31:03;;;;;;;5.83;1.90;;;;;;;18.66;52.26;99473.45;5154138;56;1136752;-75
2021/05/17 12:36:09;;;;;;;6.28;1.80;;;;;;;18.58;51.22;99482.48;5153896;56;1136729;-75
2021/05/17 12:41:35;;;;;;;4.90;1.40;;;;;;;18.56;51.17;99472.44;5174211;56;1136745;-75
2021/05/17 12:46:41;;;;;;;3.30;1.52;;;;;;;18.52;51.34;99474.36;5153690;56;1136416;-75
2021/05/17 12:51:51;;;;;;;3.55;1.17;;;;;;;18.56;51.58;99475.63;5153871;56;1136397;-74
2021/05/17 12:57:11;;;;;;;3.43;1.07;;;;;;;18.63;52.28;99475.21;5154095;56;1136803;-73
2021/05/17 13:02:15;;;;;;;4.80;0.90;;;;;;;18.60;50.76;99474.25;5154154;56;1136536;-75
2021/05/17 13:07:21;;;;;;;2.26;1.12;;;;;;;18.46;51.41;99477.84;5153318;56;1136925;-74
2021/05/17 13:12:27;;;;;;;2.45;0.90;;;;;;;18.47;51.68;99473.63;5151823;56;1136462;-75
2021/05/17 13:17:33;;;;;;;2.45;0.88;;;;;;;18.47;51.93;99472.29;5152308;55;1136503;-75
2021/05/17 13:33:40;;;;;;;2.80;0.80;;;;;;;18.35;51.05;99468.47;5100719;56;1136458;-74
2021/05/17 13:38:46;;;;;;;4.70;1.07;;;;;;;18.42;51.06;99464.52;5099363;56;1136807;-78
2021/05/17 13:43:52;;;;;;;1.07;0.78;;;;;;;18.49;50.94;99463.52;5150537;56;1136329;-73
2021/05/17 13:48:58;;;;;;;3.92;0.80;;;;;;;18.53;50.33;99462.63;5153178;56;1136712;-74
2021/05/17 13:54:05;;;;;;;3.93;1.03;;;;;;;18.49;51.00;99458.16;5153254;56;1136716;-75
2021/05/17 13:59:10;;;;;;;2.57;1.20;;;;;;;18.46;51.48;99453.23;5153539;56;1136914;-74
2021/05/17 14:04:16;;;;;;;4.37;1.20;;;;;;;18.40;52.01;99457.19;5153502;56;1136708;-76
2021/05/17 14:09:22;;;;;;;4.33;1.40;;;;;;;18.38;52.91;99453.88;5153015;56;1136692;-74
2021/05/17 14:14:28;;;;;;;7.80;1.20;;;;;;;18.37;53.06;99453.55;5154100;56;1136747;-74
2021/05/17 14:19:34;;;;;;;2.87;0.67;;;;;;;18.33;53.41;99454.98;5154201;56;1136410;-75
2021/05/17 14:24:41;;;;;;;2.70;1.20;;;;;;;18.38;53.81;99454.70;5154599;56;1136457;-74
2021/05/17 14:29:47;;;;;;;2.63;1.20;;;;;;;18.35;53.13;99455.08;5154359;56;1136356;-76
2021/05/17 14:34:53;;;;;;;1.90;0.60;;;;;;;18.26;52.54;99456.27;5153761;56;1136617;-78
2021/05/17 14:39:58;;;;;;;5.77;1.00;;;;;;;18.24;52.29;99455.62;5154428;56;1136882;-76
2021/05/17 14:45:07;;;;;;;1.80;1.10;;;;;;;18.18;52.51;99457.22;5153917;55;1136382;-75
2021/05/17 14:50:14;;;;;;;1.90;0.63;;;;;;;18.18;52.13;99463.11;5154400;56;1136696;-73
2021/05/17 14:55:20;;;;;;;3.13;0.90;;;;;;;18.19;52.69;99469.58;5154606;56;1136403;-76
2021/05/17 15:00:26;;;;;;;0.98;0.60;;;;;;;18.24;51.68;99475.19;5153982;56;1136882;-75
2021/05/17 15:05:31;;;;;;;2.10;0.62;;;;;;;18.24;51.40;99478.38;5129640;56;1136726;-73
2021/05/17 15:10:37;;;;;;;4.12;0.80;;;;;;;18.21;51.72;99483.60;5133533;56;1136854;-76
2021/05/17 15:15:43;;;;;;;2.77;0.80;;;;;;;18.17;52.00;99487.70;5108490;56;1136835;-75
2021/05/17 15:20:50;;;;;;;1.57;0.70;;;;;;;18.15;51.80;99495.09;5054611;57;1137036;-73
2021/05/17 15:25:57;;;;;;;5.07;0.97;;;;;;;18.11;52.05;99495.16;5054784;57;1136753;-74
2021/05/17 15:31:04;;;;;;;3.07;1.00;;;;;;;18.07;51.83;99502.41;5054131;57;1136979;-75
2021/05/17 15:36:11;;;;;;;5.40;1.67;;;;;;;18.03;51.89;99503.80;5054586;57;1136710;-75
2021/05/17 15:41:17;;;;;;;1.13;0.90;;;;;;;17.99;52.22;99504.72;5053696;57;1136775;-72
2021/05/17 15:46:23;;;;;;;1.97;0.90;;;;;;;17.97;52.39;99504.59;5052583;57;1136966;-76
2021/05/17 15:51:32;;;;;;;1.07;0.68;;;;;;;17.94;52.62;99504.45;5052978;57;1136535;-74
2021/05/17 15:56:37;;;;;;;3.43;1.30;;;;;;;17.95;52.57;99511.47;5054589;57;1136418;-74
2021/05/17 16:01:43;;;;;;;1.30;0.70;;;;;;;17.93;52.90;99516.17;5055500;57;1136533;-73
2021/05/17 16:06:49;;;;;;;8.27;1.10;;;;;;;17.89;53.12;99509.03;5049885;57;1136250;-75
2021/05/17 16:12:09;;;;;;;5.27;1.20;;;;;;;17.87;53.58;99509.73;5053692;57;1137121;-76
2021/05/17 16:22:33;;;;;;;2.45;1.17;;;;;;;17.85;53.72;99505.61;5053777;57;1136751;-73
2021/05/17 16:27:38;;;;;;;2.63;0.90;;;;;;;17.83;54.35;99516.50;5059218;57;1136728;-75
2021/05/17 16:32:46;;;;;;;3.13;1.40;;;;;;;17.84;54.45;99510.13;5092400;57;1136690;-77
2021/05/17 16:37:52;;;;;;;0.87;0.60;;;;;;;17.87;54.44;99514.28;5092192;56;1136365;-77
2021/05/17 16:42:58;;;;;;;2.37;0.97;;;;;;;17.86;54.13;99516.13;5092209;57;1136709;-74
2021/05/17 16:48:05;;;;;;;4.70;2.50;;;;;;;17.84;54.26;99518.67;5092057;57;1136470;-74
2021/05/17 16:53:11;;;;;;;1.53;0.80;;;;;;;17.82;54.48;99514.02;5092180;57;1136426;-77
2021/05/17 16:58:16;;;;;;;1.47;0.90;;;;;;;17.84;54.55;99522.68;5092405;57;1136411;-73
2021/05/17 17:03:22;;;;;;;25.33;1.50;;;;;;;17.80;54.76;99515.53;5076549;57;1136655;-77
2021/05/17 17:08:29;;;;;;;8.98;3.90;;;;;;;17.79;54.99;99523.23;5069895;57;1138361;-75
2021/05/17 17:13:34;;;;;;;7.37;1.85;;;;;;;17.82;54.96;99522.86;5070237;57;1136947;-77
2021/05/17 17:18:40;;;;;;;2.67;2.47;;;;;;;17.81;54.93;99529.73;5090015;56;1136737;-76
2021/05/17 17:23:47;;;;;;;17.57;6.77;;;;;;;17.76;55.04;99525.45;5178020;56;1136869;-74
2021/05/17 17:28:53;;;;;;;5.97;5.03;;;;;;;17.80;55.34;99526.23;5177575;56;1138874;-77
2021/05/17 17:34:00;;;;;;;9.00;4.90;;;;;;;17.81;55.29;99522.55;5177828;56;1136986;-76
2021/05/17 17:39:09;;;;;;;16.17;4.37;;;;;;;17.82;55.01;99524.71;5177685;56;1136681;-76
2021/05/17 17:44:16;;;;;;;22.73;12.60;;;;;;;17.80;55.02;99532.92;5177809;56;1138762;-77
2021/05/17 17:49:22;;;;;;;26.27;11.63;;;;;;;17.81;55.48;99534.58;5183442;56;1140913;-75
2021/05/17 17:54:28;;;;;;;28.47;14.05;;;;;;;17.77;55.86;99531.95;5177474;55;1141062;-75
2021/05/17 17:59:34;;;;;;;24.92;8.93;;;;;;;17.81;56.19;99535.09;5177511;56;1140343;-76
2021/05/17 18:04:39;;;;;;;24.35;10.70;;;;;;;17.77;56.54;99536.47;5177661;56;1138817;-78
2021/05/17 18:09:45;;;;;;;30.17;12.37;;;;;;;17.72;57.27;99534.36;5177615;56;1140356;-77
2021/05/17 18:14:51;;;;;;;33.80;15.47;;;;;;;17.71;58.02;99538.59;5177424;56;1140478;-80
2021/05/17 18:19:56;;;;;;;31.87;15.07;;;;;;;17.71;58.39;99539.42;5175778;56;1140909;-73
2021/05/17 18:25:03;;;;;;;34.27;12.70;;;;;;;17.70;58.83;99544.95;5163773;56;1140969;-75
2021/05/17 18:30:12;;;;;;;43.07;19.33;;;;;;;17.69;59.08;99551.31;5163830;56;1140847;-75
2021/05/17 18:35:21;;;;;;;44.17;19.13;;;;;;;17.67;59.59;99552.84;5160344;56;1141004;-76
2021/05/17 18:40:24;;;;;;;45.67;21.83;;;;;;;17.62;59.68;99551.19;5153521;56;1140580;-78
2021/05/17 18:45:31;;;;;;;24.40;12.03;;;;;;;17.55;59.96;99551.13;5153231;56;1140602;-76
2021/05/17 18:50:36;;;;;;;36.90;14.87;;;;;;;17.48;60.33;99552.05;5153213;56;1140487;-77
2021/05/17 18:55:43;;;;;;;36.90;16.00;;;;;;;17.36;60.47;99562.91;5149523;56;1140580;-75
2021/05/17 19:00:50;;;;;;;37.80;16.67;;;;;;;17.22;60.99;99555.22;5153298;56;1140364;-76
2021/05/17 19:05:56;;;;;;;47.17;19.33;;;;;;;17.07;61.51;99560.56;5153055;56;1140500;-79
2021/05/17 19:11:02;;;;;;;35.43;11.87;;;;;;;17.08;62.29;99566.23;5153194;56;1140862;-76
2021/05/17 19:16:11;;;;;;;25.83;10.40;;;;;;;17.14;62.75;99570.83;5153735;56;1140901;-75
2021/05/17 19:21:19;;;;;;;32.10;14.07;;;;;;;17.20;63.05;99574.61;5153785;56;1140851;-74
2021/05/17 19:26:27;;;;;;;241.53;106.80;;;;;;;17.19;63.20;99575.13;5154969;56;1141121;-77
2021/05/17 19:31:32;;;;;;;227.20;99.32;;;;;;;17.15;63.26;99575.16;5123216;56;1145074;-78
2021/05/17 19:36:38;;;;;;;126.38;57.60;;;;;;;17.12;63.52;99578.70;5155265;56;1143035;-75
2021/05/17 19:41:44;;;;;;;17.43;7.20;;;;;;;17.07;63.76;99577.94;5154274;56;1142989;-77
2021/05/17 19:46:50;;;;;;;9.37;4.57;;;;;;;17.02;64.09;99579.48;5155040;56;1139090;-73
2021/05/17 19:51:57;;;;;;;5.37;2.83;;;;;;;16.88;64.10;99585.97;5155275;56;1136646;-75
2021/05/17 19:57:02;;;;;;;14.40;5.03;;;;;;;16.59;63.59;99593.06;5063728;56;1136693;-77
2021/05/17 20:02:09;;;;;;;14.83;5.90;;;;;;;16.27;63.72;99594.98;5017525;57;1138714;-77
2021/05/17 20:07:15;;;;;;;10.73;5.17;;;;;;;16.06;64.13;99598.28;5017669;57;1138891;-78
2021/05/17 20:12:21;;;;;;;17.50;5.23;;;;;;;15.91;64.62;99597.87;5017440;57;1138909;-72
2021/05/17 20:17:27;;;;;;;28.73;12.83;;;;;;;15.76;64.93;99599.13;5017638;57;1138809;-75
2021/05/17 20:22:36;;;;;;;20.17;8.58;;;;;;;15.68;64.99;99594.68;5017319;57;1140898;-75
2021/05/17 20:27:43;;;;;;;46.37;19.17;;;;;;;15.64;65.24;99606.69;5125549;56;1139000;-76
2021/05/17 20:32:59;;;;;;;38.70;15.67;;;;;;;15.60;65.26;99605.86;5153698;56;1140838;-76
2021/05/17 20:38:00;;;;;;;27.33;10.07;;;;;;;15.55;65.51;99605.54;5151594;56;1140965;-78
2021/05/17 20:43:13;;;;;;;12.40;6.63;;;;;;;15.47;65.59;99609.89;5153632;56;1140622;-75
2021/05/17 20:48:16;;;;;;;32.90;13.00;;;;;;;15.38;65.63;99614.09;5153772;56;1138967;-76
2021/05/17 20:53:22;;;;;;;41.00;18.63;;;;;;;15.38;65.92;99618.09;5153665;56;1140365;-78
2021/05/17 20:58:27;;;;;;;11.50;7.83;;;;;;;15.37;65.94;99619.09;5153644;56;1140907;-71
2021/05/17 21:03:33;;;;;;;23.00;12.03;;;;;;;15.35;65.89;99624.59;5153910;56;1138875;-74
2021/05/17 21:08:39;;;;;;;6.22;4.50;;;;;;;15.34;65.84;99621.59;5153661;56;1140968;-76
2021/05/17 21:13:45;;;;;;;12.13;4.77;;;;;;;15.25;65.90;99618.63;5153750;56;1136655;-74
2021/05/17 21:18:51;;;;;;;6.17;4.40;;;;;;;15.11;66.14;99632.16;5153721;56;1138834;-77
2021/05/17 21:23:58;;;;;;;6.70;3.33;;;;;;;15.05;66.20;99631.98;5153691;56;1136711;-73
2021/05/17 21:29:06;;;;;;;4.53;3.10;;;;;;;15.01;66.12;99639.98;5154727;56;1136719;-71
2021/05/17 21:34:11;;;;;;;7.43;4.50;;;;;;;14.98;66.14;99644.30;5154979;56;1136663;-74
2021/05/17 21:39:19;;;;;;;7.33;3.47;;;;;;;15.01;66.22;99643.47;5154686;56;1136925;-73
2021/05/17 21:44:26;;;;;;;7.62;3.08;;;;;;;14.98;66.29;99640.31;5172790;56;1145902;-73
2021/05/17 21:49:31;;;;;;;15.85;4.67;;;;;;;15.00;66.42;99642.30;5139928;56;1136740;-74
2021/05/17 21:54:37;;;;;;;5.20;2.95;;;;;;;14.99;66.48;99632.66;5154744;56;1139054;-78
2021/05/17 21:59:43;;;;;;;29.72;12.93;;;;;;;14.90;66.76;99638.50;5154928;56;1136915;-76
2021/05/17 22:04:49;;;;;;;8.53;3.23;;;;;;;14.84;66.56;99637.00;5154332;56;1140544;-78
2021/05/17 22:10:10;;;;;;;2.77;2.50;;;;;;;14.82;66.51;99636.36;5154676;56;1136468;-76
2021/05/17 22:15:16;;;;;;;6.70;2.93;;;;;;;14.81;66.57;99635.53;5154946;56;1136484;-77
2021/05/17 22:20:24;;;;;;;5.80;3.33;;;;;;;14.78;66.69;99631.37;5154546;56;1136377;-80
2021/05/17 22:25:30;;;;;;;6.20;4.00;;;;;;;14.73;66.65;99636.84;5154562;56;1136444;-76
2021/05/17 22:30:35;;;;;;;7.30;4.70;;;;;;;14.60;66.76;99631.20;5153844;56;1136739;-71
2021/05/17 22:35:42;;;;;;;5.62;4.10;;;;;;;14.64;67.11;99637.36;5153682;56;1136684;-71
2021/05/17 22:40:47;;;;;;;11.90;5.20;;;;;;;14.69;67.32;99636.84;5153524;56;1136731;-77
2021/05/17 22:45:53;;;;;;;10.27;4.73;;;;;;;14.69;67.37;99627.52;5153346;56;1138278;-80
2021/05/17 22:51:01;;;;;;;32.10;14.40;;;;;;;14.67;67.43;99624.19;5153301;56;1138318;-75
2021/05/17 22:56:07;;;;;;;8.30;4.83;;;;;;;14.65;67.47;99633.70;5153079;56;1140581;-80
2021/05/17 23:01:13;;;;;;;5.20;3.47;;;;;;;14.59;67.51;99629.53;5153495;56;1136688;-78
2021/05/17 23:06:19;;;;;;;51.00;22.27;;;;;;;14.57;67.61;99627.03;5153538;56;1136252;-73
2021/05/17 23:11:26;;;;;;;6.80;3.67;;;;;;;14.49;68.13;99624.88;5153004;56;1140547;-76
2021/05/17 23:16:31;;;;;;;9.53;4.57;;;;;;;14.38;68.34;99616.18;5153755;56;1136437;-73
2021/05/17 23:32:09;;;;;;;13.60;4.60;;;;;;;14.12;68.96;99612.00;5099313;56;1136686;-77
2021/05/17 23:37:15;;;;;;;8.20;4.90;;;;;;;14.13;69.21;99611.01;5092140;56;1138300;-76
2021/05/17 23:42:21;;;;;;;5.83;3.80;;;;;;;14.10;69.30;99610.83;5092070;56;1136331;-77
2021/05/17 23:47:27;;;;;;;7.10;3.70;;;;;;;14.07;69.56;99608.49;5092168;56;1136346;-72
2021/05/17 23:52:33;;;;;;;7.23;3.97;;;;;;;14.03;69.67;99605.36;5092216;56;1136603;-72
2021/05/17 23:57:39;;;;;;;10.25;5.15;;;;;;;14.05;69.56;99613.97;5092672;56;1136872;-73
